Time;durP1;ratioP1;P1;durP2;ratioP2;P2;SDS_P1;SDS_P2;PMS_P1;PMS_P2;Temp;Humidity;BMP_temperature;BMP_pressure;BME280_temperature;BME280_humidity;BME280_pressure;Samples;Min_cycle;Max_cycle;Signal;HPM_P1;HPM_P2
2021/01/02 00:01:43;;;;;;;16.08;8.75;;;3.40;95.30;;;;;;5022351;28;20040;-75
2021/01/02 00:04:44;;;;;;;42.70;21.65;;;3.30;95.30;;;;;;5005829;28;20140;-76
2021/01/02 00:07:44;;;;;;;44.05;22.58;;;3.30;95.30;;;;;;5028475;28;20041;-75
2021/01/02 00:10:10;;;;;;;33.95;15.70;;;3.30;95.30;;;;;;5041057;28;20065;-77
2021/01/02 00:12:59;;;;;;;27.55;12.40;;;3.30;95.20;;;;;;5007941;28;20037;-75
2021/01/02 00:16:08;;;;;;;8.38;4.95;;;3.30;95.20;;;;;;5041737;28;20424;-75
2021/01/02 00:18:37;;;;;;;37.47;17.10;;;3.40;95.20;;;;;;5028720;28;20044;-75
2021/01/02 00:21:14;;;;;;;44.40;21.38;;;3.30;95.20;;;;;;4995074;28;20036;-75
2021/01/02 00:23:57;;;;;;;39.00;17.40;;;3.40;95.30;;;;;;4995059;28;20037;-75
2021/01/02 00:26:44;;;;;;;40.55;19.73;;;3.40;95.30;;;;;;5040694;28;20036;-75
2021/01/02 00:29:21;;;;;;;39.35;19.52;;;3.30;95.30;;;;;;5028680;28;20040;-76
2021/01/02 00:32:03;;;;;;;23.65;11.43;;;3.30;95.30;;;;;;5026579;28;20036;-75
2021/01/02 00:34:53;;;;;;;46.20;23.58;;;3.30;95.40;;;;;;5043659;28;20060;-76
2021/01/02 00:37:41;;;;;;;41.55;21.40;;;3.30;95.40;;;;;;5041134;28;20082;-77
2021/01/02 00:40:08;;;;;;;32.85;15.35;;;3.30;95.40;;;;;;5027461;28;20032;-76
2021/01/02 00:42:34;;;;;;;42.60;18.90;;;3.30;95.40;;;;;;5009260;28;20060;-76
2021/01/02 00:45:00;;;;;;;34.85;17.70;;;3.30;95.50;;;;;;5012350;28;20051;-76
2021/01/02 00:47:27;;;;;;;40.72;19.15;;;3.30;95.50;;;;;;5025175;28;20136;-76
2021/01/02 00:49:54;;;;;;;40.92;18.70;;;3.30;95.50;;;;;;5023522;28;20036;-77
2021/01/02 00:52:47;;;;;;;24.50;13.73;;;3.30;95.50;;;;;;5025215;28;20056;-76
2021/01/02 00:55:52;;;;;;;26.48;13.48;;;3.30;95.40;;;;;;5026931;28;20079;-76
2021/01/02 00:58:27;;;;;;;35.40;18.55;;;3.30;95.50;;;;;;5043726;28;20029;-76
2021/01/02 01:01:03;;;;;;;22.95;12.40;;;3.30;95.50;;;;;;5010991;28;20036;-77
2021/01/02 01:03:47;;;;;;;30.15;14.48;;;3.30;95.60;;;;;;4986440;28;20052;-77
2021/01/02 01:06:12;;;;;;;40.13;20.13;;;3.20;95.60;;;;;;5046117;28;20048;-77
2021/01/02 01:08:44;;;;;;;46.65;21.73;;;3.20;95.60;;;;;;5025561;28;20148;-77
2021/01/02 01:11:11;;;;;;;41.05;18.08;;;3.10;95.60;;;;;;5014035;28;20025;-77
2021/01/02 01:13:37;;;;;;;32.33;17.27;;;3.20;95.70;;;;;;5027930;28;20033;-77
2021/01/02 01:16:04;;;;;;;47.90;24.80;;;3.20;95.70;;;;;;4995599;28;20059;-78
2021/01/02 01:18:50;;;;;;;39.50;19.92;;;3.30;95.80;;;;;;5011896;28;20044;-77
2021/01/02 01:21:16;;;;;;;41.65;21.73;;;3.10;95.70;;;;;;5059380;28;20440;-77
2021/01/02 01:23:54;;;;;;;34.67;18.42;;;3.10;95.60;;;;;;5008877;28;20094;-77
2021/01/02 01:26:41;;;;;;;22.52;11.20;;;3.20;95.70;;;;;;5011712;28;20037;-77
2021/01/02 01:29:06;;;;;;;15.07;8.23;;;3.20;95.80;;;;;;5040448;28;20033;-77
2021/01/02 01:31:45;;;;;;;44.80;19.42;;;3.10;95.70;;;;;;4993084;28;20038;-77
2021/01/02 01:34:21;;;;;;;29.83;14.07;;;3.10;95.70;;;;;;5012589;28;20087;-77
2021/01/02 01:36:47;;;;;;;12.98;7.28;;;3.10;95.70;;;;;;5025025;28;20037;-77
2021/01/02 01:39:13;;;;;;;31.30;11.88;;;3.10;95.70;;;;;;5026364;28;20033;-77
2021/01/02 01:41:42;;;;;;;27.95;12.55;;;3.10;95.70;;;;;;5007694;28;20072;-77
2021/01/02 01:44:08;;;;;;;44.47;20.80;;;3.10;95.70;;;;;;5010826;28;20032;-77
2021/01/02 01:46:35;;;;;;;34.50;17.35;;;3.10;95.70;;;;;;5046967;28;20086;-77
2021/01/02 01:49:13;;;;;;;41.72;20.90;;;3.10;95.70;;;;;;5024437;28;20090;-78
2021/01/02 01:51:59;;;;;;;32.35;15.45;;;3.10;95.70;;;;;;4992896;28;20037;-77
2021/01/02 01:54:55;;;;;;;48.08;23.90;;;3.00;95.80;;;;;;5008711;28;20083;-78
2021/01/02 01:57:21;;;;;;;19.48;10.43;;;3.10;95.80;;;;;;5022971;28;20071;-77
2021/01/02 01:59:58;;;;;;;40.10;18.98;;;3.10;95.70;;;;;;5024083;28;20029;-77
2021/01/02 02:02:45;;;;;;;41.40;21.17;;;3.10;95.60;;;;;;5024520;28;20040;-77
2021/01/02 02:05:14;;;;;;;;;;;3.10;95.60;;;;;;5021116;28;20738;-78
2021/01/02 02:08:08;;;;;;;37.78;17.27;;;3.10;95.60;;;;;;5009134;28;19917;-78
2021/01/02 02:10:36;;;;;;;47.92;23.08;;;3.20;95.60;;;;;;5005969;28;20141;-77
2021/01/02 02:13:15;;;;;;;5.20;2.92;;;3.10;95.60;;;;;;5004719;28;20565;-78
2021/01/02 02:15:59;;;;;;;29.38;14.20;;;3.10;95.60;;;;;;5036450;28;20046;-78
2021/01/02 02:18:28;;;;;;;33.72;15.23;;;3.10;95.60;;;;;;4993539;28;20108;-77
2021/01/02 02:20:55;;;;;;;32.22;16.33;;;3.10;95.60;;;;;;5009107;28;20048;-77
2021/01/02 02:23:30;;;;;;;35.83;16.98;;;3.10;95.60;;;;;;5007140;28;20501;-77
2021/01/02 02:25:59;;;;;;;37.30;18.42;;;3.00;95.60;;;;;;5007120;28;20394;-77
2021/01/02 02:28:48;;;;;;;18.10;10.27;;;3.10;95.80;;;;;;5027390;28;20046;-77
2021/01/02 02:31:14;;;;;;;31.95;14.10;;;3.10;95.80;;;;;;4987828;28;20029;-77
2021/01/02 02:33:40;;;;;;;19.15;10.27;;;3.10;95.60;;;;;;5005867;28;20038;-77
2021/01/02 02:36:06;;;;;;;35.20;17.77;;;3.10;95.60;;;;;;5010308;28;20052;-78
2021/01/02 02:38:35;;;;;;;33.45;18.35;;;3.10;95.60;;;;;;5012536;28;20045;-77
2021/01/02 02:41:02;;;;;;;30.73;16.13;;;3.10;95.60;;;;;;4994207;28;20022;-77
2021/01/02 02:43:28;;;;;;;29.45;15.05;;;3.10;95.60;;;;;;5022978;28;20397;-78
2021/01/02 02:45:53;;;;;;;32.38;16.27;;;3.10;95.60;;;;;;5024471;28;20032;-77
2021/01/02 02:48:19;;;;;;;33.67;15.93;;;3.10;95.60;;;;;;5009168;28;20034;-77
2021/01/02 02:50:47;;;;;;;37.42;18.52;;;3.10;95.60;;;;;;5022933;28;20041;-78
2021/01/02 02:53:13;;;;;;;24.25;9.07;;;3.00;95.60;;;;;;5025322;28;20460;-77
2021/01/02 02:55:39;;;;;;;26.15;13.82;;;3.10;95.60;;;;;;5027132;28;20029;-78
2021/01/02 02:58:05;;;;;;;30.75;13.35;;;3.10;95.50;;;;;;4998564;28;20032;-77
2021/01/02 03:00:30;;;;;;;25.00;13.38;;;3.00;95.50;;;;;;5038602;28;20041;-78
2021/01/02 03:02:56;;;;;;;32.47;15.82;;;3.00;95.60;;;;;;4998239;28;20080;-77
2021/01/02 03:05:21;;;;;;;18.20;8.60;;;2.90;95.60;;;;;;5007826;28;20029;-77
2021/01/02 03:07:48;;;;;;;36.08;18.88;;;2.90;95.70;;;;;;5023085;28;20037;-77
2021/01/02 03:10:15;;;;;;;33.70;16.58;;;2.90;95.60;;;;;;5006328;28;20061;-77
2021/01/02 03:12:45;;;;;;;32.58;16.92;;;2.90;95.70;;;;;;5023154;28;20034;-76
2021/01/02 03:15:12;;;;;;;31.58;12.50;;;2.90;95.60;;;;;;5019760;28;20512;-77
2021/01/02 03:17:39;;;;;;;25.45;13.48;;;2.90;95.70;;;;;;4998994;28;20029;-76
2021/01/02 03:20:05;;;;;;;26.02;14.70;;;2.90;95.70;;;;;;4984717;28;20033;-76
2021/01/02 03:22:31;;;;;;;25.10;13.68;;;2.90;95.80;;;;;;5005968;28;20095;-76
2021/01/02 03:24:56;;;;;;;28.40;14.40;;;2.90;95.80;;;;;;5038286;28;20029;-76
2021/01/02 03:27:22;;;;;;;32.47;17.20;;;2.80;95.70;;;;;;5004434;28;20034;-77
2021/01/02 03:29:48;;;;;;;25.88;13.00;;;2.80;95.70;;;;;;5025822;28;20029;-76
2021/01/02 03:32:13;;;;;;;27.88;16.17;;;2.90;95.80;;;;;;5008840;28;20053;-76
2021/01/02 03:34:40;;;;;;;31.67;15.63;;;2.90;95.60;;;;;;5006685;28;20045;-77
2021/01/02 03:37:06;;;;;;;26.63;14.77;;;2.90;95.70;;;;;;4992497;28;20026;-76
2021/01/02 03:39:32;;;;;;;39.50;19.35;;;2.90;95.80;;;;;;5024169;28;20563;-76
2021/01/02 03:41:57;;;;;;;22.90;13.20;;;2.80;95.70;;;;;;5006154;28;20032;-76
2021/01/02 03:44:23;;;;;;;35.80;16.27;;;2.80;95.80;;;;;;5006929;28;20025;-76
2021/01/02 03:46:48;;;;;;;36.85;18.30;;;2.90;95.80;;;;;;5004922;28;20088;-75
2021/01/02 03:49:14;;;;;;;29.73;11.30;;;2.90;95.60;;;;;;5022031;28;20025;-75
2021/01/02 03:51:39;;;;;;;27.30;14.32;;;2.90;95.70;;;;;;5036867;28;20544;-76
2021/01/02 03:54:05;;;;;;;28.50;12.52;;;2.90;95.70;;;;;;4991739;28;20030;-75
2021/01/02 03:56:30;;;;;;;24.02;12.43;;;2.90;95.60;;;;;;4990703;28;20068;-80
2021/01/02 03:58:56;;;;;;;27.60;14.90;;;2.90;95.70;;;;;;4992520;28;20075;-78
2021/01/02 04:01:21;;;;;;;13.77;7.47;;;2.90;95.70;;;;;;5004953;28;20029;-80
2021/01/02 04:03:47;;;;;;;32.20;15.93;;;2.90;95.60;;;;;;5036904;28;20533;-79
2021/01/02 04:06:13;;;;;;;30.88;14.40;;;2.90;95.80;;;;;;5020584;28;20064;-80
2021/01/02 04:08:38;;;;;;;22.00;11.32;;;2.90;95.70;;;;;;5003431;28;20121;-79
2021/01/02 04:11:04;;;;;;;31.70;16.83;;;2.90;95.50;;;;;;5006779;28;20025;-79
2021/01/02 04:13:29;;;;;;;33.00;16.77;;;2.90;95.60;;;;;;4987630;28;20120;-79
2021/01/02 04:15:55;;;;;;;32.42;15.63;;;2.90;95.60;;;;;;5023875;28;20091;-79
2021/01/02 04:18:20;;;;;;;20.73;11.48;;;2.90;95.60;;;;;;5003809;28;20083;-80
2021/01/02 04:20:49;;;;;;;31.90;15.50;;;2.90;95.60;;;;;;5036789;28;20041;-80
2021/01/02 04:23:14;;;;;;;32.85;16.88;;;2.90;95.50;;;;;;5021351;28;20064;-78
2021/01/02 04:25:40;;;;;;;35.78;18.05;;;2.90;95.60;;;;;;5019716;28;20502;-79
2021/01/02 04:28:08;;;;;;;32.40;16.60;;;2.80;95.60;;;;;;5004733;28;20041;-80
2021/01/02 04:30:34;;;;;;;32.47;16.27;;;2.90;95.70;;;;;;5004484;28;20457;-79
2021/01/02 04:32:59;;;;;;;34.35;15.77;;;2.80;95.50;;;;;;4986105;28;20112;-79
2021/01/02 04:35:25;;;;;;;28.58;16.02;;;2.90;95.50;;;;;;4988722;28;20061;-78
2021/01/02 04:37:50;;;;;;;34.22;17.20;;;2.90;95.50;;;;;;5005798;28;20079;-79
2021/01/02 04:40:16;;;;;;;30.13;15.15;;;2.90;95.60;;;;;;5019458;28;20033;-79
2021/01/02 04:42:44;;;;;;;33.20;15.93;;;2.90;95.50;;;;;;5003836;28;20387;-79
2021/01/02 04:45:10;;;;;;;34.38;16.92;;;2.90;95.40;;;;;;5003857;28;20112;-79
2021/01/02 04:47:37;;;;;;;23.65;10.55;;;2.80;95.50;;;;;;5033778;28;20458;-79
2021/01/02 04:50:04;;;;;;;34.28;16.10;;;2.90;95.40;;;;;;5006797;28;20048;-80
2021/01/02 04:52:30;;;;;;;26.65;14.38;;;2.90;95.50;;;;;;5020052;28;20113;-79
2021/01/02 04:54:55;;;;;;;31.30;15.25;;;2.80;95.30;;;;;;5005751;28;20040;-79
2021/01/02 04:57:21;;;;;;;36.13;17.75;;;2.80;95.50;;;;;;5036383;28;20553;-79
2021/01/02 04:59:50;;;;;;;29.05;15.20;;;2.80;95.40;;;;;;4987367;28;20497;-79
2021/01/02 05:02:19;;;;;;;28.48;15.57;;;2.90;95.40;;;;;;5011388;28;20030;-79
2021/01/02 05:04:48;;;;;;;27.23;12.60;;;2.90;95.40;;;;;;5000075;28;20030;-79
2021/01/02 05:07:29;;;;;;;31.45;16.52;;;2.80;95.30;;;;;;4999160;28;20064;-79
2021/01/02 05:09:55;;;;;;;29.98;15.82;;;2.90;95.40;;;;;;5035543;28;20037;-79
2021/01/02 05:12:25;;;;;;;31.70;15.43;;;2.80;95.40;;;;;;5019932;28;20543;-79
2021/01/02 05:14:57;;;;;;;36.83;15.10;;;2.90;95.30;;;;;;5036361;28;20044;-79
2021/01/02 05:17:26;;;;;;;8.80;3.63;;;2.90;95.20;;;;;;5000262;28;20038;-79
2021/01/02 05:20:00;;;;;;;34.88;17.38;;;2.80;95.20;;;;;;5019044;28;20049;-79
2021/01/02 05:22:26;;;;;;;28.67;13.65;;;2.80;95.30;;;;;;5004398;28;20068;-79
2021/01/02 05:25:32;;;;;;;36.05;17.73;;;2.80;95.20;;;;;;5002207;28;20053;-80
2021/01/02 05:27:57;;;;;;;34.58;16.70;;;2.80;95.30;;;;;;4988948;28;20064;-79
2021/01/02 05:30:32;;;;;;;39.80;17.17;;;2.80;95.20;;;;;;5014488;28;20600;-79
2021/01/02 05:33:08;;;;;;;33.28;16.60;;;2.80;95.20;;;;;;5020577;28;20537;-79
2021/01/02 05:35:37;;;;;;;40.45;19.27;;;2.80;95.20;;;;;;5018695;28;20490;-79
2021/01/02 05:38:19;;;;;;;36.22;16.88;;;2.80;95.20;;;;;;5020877;28;20026;-78
2021/01/02 05:40:54;;;;;;;34.03;18.85;;;2.90;95.30;;;;;;4987502;28;20120;-78
2021/01/02 05:43:22;;;;;;;31.05;14.82;;;2.80;95.30;;;;;;4994897;28;20524;-79
2021/01/02 05:45:47;;;;;;;33.78;17.63;;;2.80;95.30;;;;;;5003447;28;20073;-79
2021/01/02 05:48:19;;;;;;;33.10;17.05;;;2.80;95.20;;;;;;4999098;28;20527;-77
2021/01/02 05:50:46;;;;;;;36.72;18.70;;;2.80;95.30;;;;;;5017899;28;20041;-78
2021/01/02 05:53:34;;;;;;;34.25;18.60;;;2.70;95.20;;;;;;5020246;28;20029;-79
2021/01/02 05:56:02;;;;;;;28.30;14.88;;;2.80;95.30;;;;;;4988055;28;20103;-79
2021/01/02 05:58:29;;;;;;;36.15;17.80;;;2.70;95.30;;;;;;5027991;28;20037;-78
2021/01/02 06:01:11;;;;;;;38.28;18.98;;;2.80;95.30;;;;;;5011553;28;20036;-78
2021/01/02 06:03:37;;;;;;;32.97;18.45;;;2.80;95.20;;;;;;4992131;28;20048;-79
2021/01/02 06:06:05;;;;;;;33.58;16.35;;;2.80;95.10;;;;;;5008446;28;20083;-78
2021/01/02 06:08:45;;;;;;;36.70;17.45;;;2.80;95.30;;;;;;4994580;28;20465;-78
2021/01/02 06:11:18;;;;;;;32.55;18.23;;;2.80;95.10;;;;;;5047579;28;20064;-78
2021/01/02 06:13:48;;;;;;;38.90;18.20;;;2.80;95.10;;;;;;5003852;28;20060;-79
2021/01/02 06:16:14;;;;;;;27.90;13.00;;;2.70;95.10;;;;;;5016599;28;20143;-78
2021/01/02 06:18:43;;;;;;;27.40;10.10;;;2.70;95.20;;;;;;4999398;28;20403;-78
2021/01/02 06:21:16;;;;;;;30.13;14.68;;;2.70;95.10;;;;;;5006470;28;20064;-79
2021/01/02 06:23:42;;;;;;;32.45;17.25;;;2.70;95.20;;;;;;5014786;28;20046;-79
2021/01/02 06:26:09;;;;;;;39.47;17.85;;;2.70;95.20;;;;;;4987589;28;20041;-78
2021/01/02 06:28:40;;;;;;;23.92;11.15;;;2.70;95.20;;;;;;5018619;28;20559;-79
2021/01/02 06:31:09;;;;;;;38.08;21.10;;;2.60;95.20;;;;;;4989949;28;20029;-79
2021/01/02 06:33:35;;;;;;;40.58;19.63;;;2.60;95.20;;;;;;5004863;28;20049;-79
2021/01/02 06:36:01;;;;;;;34.53;18.00;;;2.70;95.30;;;;;;5020003;28;20033;-77
2021/01/02 06:38:27;;;;;;;29.60;14.27;;;2.70;95.20;;;;;;5002005;28;20037;-79
2021/01/02 06:40:55;;;;;;;29.85;15.07;;;2.60;95.10;;;;;;5002513;28;20045;-79
2021/01/02 06:43:25;;;;;;;39.38;18.00;;;2.60;95.20;;;;;;5017828;28;20037;-78
2021/01/02 06:45:52;;;;;;;33.13;14.13;;;2.60;95.10;;;;;;5031767;28;20042;-79
2021/01/02 06:48:17;;;;;;;27.20;13.70;;;2.60;95.10;;;;;;5018277;28;20042;-79
2021/01/02 06:50:43;;;;;;;36.22;17.67;;;2.60;95.10;;;;;;5034182;28;20037;-79
2021/01/02 06:53:20;;;;;;;39.30;15.00;;;2.60;95.30;;;;;;5001318;28;20267;-79
2021/01/02 06:55:55;;;;;;;40.47;20.38;;;2.60;95.10;;;;;;5008254;28;20797;-79
2021/01/02 06:58:21;;;;;;;41.85;19.45;;;2.60;95.10;;;;;;5004787;28;20691;-79
2021/01/02 07:00:46;;;;;;;29.25;14.70;;;2.60;95.10;;;;;;5021828;28;20060;-78
2021/01/02 07:03:48;;;;;;;30.80;15.63;;;2.60;95.20;;;;;;5021500;28;20026;-79
2021/01/02 07:06:20;;;;;;;35.42;18.27;;;2.60;95.10;;;;;;4958152;28;20028;-79
2021/01/02 07:08:56;;;;;;;35.10;16.63;;;2.60;95.20;;;;;;5015804;28;20090;-79
2021/01/02 07:11:22;;;;;;;;;;;2.60;95.20;;;;;;5019158;28;20458;-79
2021/01/02 07:13:47;;;;;;;38.80;17.00;;;2.60;95.10;;;;;;5036660;28;20452;-79
2021/01/02 07:16:31;;;;;;;33.53;15.55;;;2.50;95.00;;;;;;5003832;28;20088;-77
2021/01/02 07:18:56;;;;;;;34.08;16.35;;;2.50;95.20;;;;;;4991197;28;20037;-78
2021/01/02 07:21:37;;;;;;;35.95;18.02;;;2.60;95.20;;;;;;5021668;28;20087;-80
2021/01/02 07:24:25;;;;;;;30.08;15.25;;;2.50;95.10;;;;;;5011685;28;20096;-79
2021/01/02 07:27:02;;;;;;;29.48;14.82;;;2.50;95.20;;;;;;5029601;28;20048;-80
2021/01/02 07:29:28;;;;;;;37.00;17.05;;;2.60;95.20;;;;;;5005798;28;20496;-80
2021/01/02 07:32:07;;;;;;;29.15;14.70;;;2.60;95.10;;;;;;5019323;28;20443;-78
2021/01/02 07:34:32;;;;;;;29.40;13.52;;;2.60;95.10;;;;;;5008920;28;20369;-80
2021/01/02 07:37:04;;;;;;;40.53;18.42;;;2.60;95.00;;;;;;4990035;28;20021;-79
2021/01/02 07:39:30;;;;;;;28.55;14.85;;;2.60;95.10;;;;;;4990725;28;20375;-80
2021/01/02 07:41:55;;;;;;;37.15;17.88;;;2.60;95.20;;;;;;5010062;28;20018;-79
2021/01/02 07:44:21;;;;;;;37.28;18.33;;;2.60;95.10;;;;;;4989912;28;20021;-79
2021/01/02 07:46:47;;;;;;;38.13;16.80;;;2.60;95.00;;;;;;5004515;28;20060;-79
2021/01/02 07:49:15;;;;;;;34.25;16.17;;;2.60;95.10;;;;;;5001383;28;20033;-79
2021/01/02 07:51:41;;;;;;;34.47;15.95;;;2.60;95.10;;;;;;5003974;28;20067;-79
2021/01/02 07:54:06;;;;;;;37.28;17.08;;;2.60;95.10;;;;;;4987785;28;20021;-78
2021/01/02 07:56:36;;;;;;;39.00;17.98;;;2.60;95.00;;;;;;4986097;28;20025;-78
2021/01/02 07:59:24;;;;;;;32.38;14.85;;;2.60;94.90;;;;;;4990684;28;20038;-80
2021/01/02 08:02:03;;;;;;;46.65;18.58;;;2.60;95.00;;;;;;5017569;28;20026;-80
2021/01/02 08:04:29;;;;;;;37.42;15.73;;;2.50;95.00;;;;;;5002672;28;20828;-79
2021/01/02 08:06:56;;;;;;;29.65;15.13;;;2.60;95.00;;;;;;5007100;28;20042;-78
2021/01/02 08:09:22;;;;;;;36.95;17.98;;;2.50;95.10;;;;;;5017544;28;20063;-80
2021/01/02 08:11:48;;;;;;;39.08;18.98;;;2.60;95.10;;;;;;4988158;28;20489;-80
2021/01/02 08:14:13;;;;;;;35.58;18.13;;;2.60;94.90;;;;;;5033402;28;20393;-79
2021/01/02 08:16:39;;;;;;;39.30;18.67;;;2.60;95.30;;;;;;5016440;28;20026;-79
2021/01/02 08:19:05;;;;;;;39.78;19.83;;;2.60;95.00;;;;;;5028339;28;20114;-77
2021/01/02 08:21:37;;;;;;;34.95;16.02;;;2.60;94.90;;;;;;4997072;28;20551;-79
2021/01/02 08:24:04;;;;;;;45.53;21.13;;;2.60;95.00;;;;;;5013967;28;20040;-79
2021/01/02 08:26:30;;;;;;;36.53;18.65;;;2.60;95.00;;;;;;5019900;28;20113;-79
2021/01/02 08:28:55;;;;;;;43.42;18.50;;;2.60;95.10;;;;;;5003128;28;20103;-79
2021/01/02 08:31:21;;;;;;;39.55;18.67;;;2.60;95.00;;;;;;5021418;28;20041;-79
2021/01/02 08:33:46;;;;;;;36.30;18.27;;;2.70;95.10;;;;;;4986869;28;20040;-79
2021/01/02 08:36:14;;;;;;;38.30;17.88;;;2.70;94.90;;;;;;5003672;28;20068;-79
2021/01/02 08:38:40;;;;;;;40.53;18.63;;;2.80;94.90;;;;;;5004014;28;20034;-79
2021/01/02 08:41:21;;;;;;;40.67;17.50;;;2.70;94.80;;;;;;5006890;28;20048;-79
2021/01/02 08:43:48;;;;;;;39.72;19.95;;;2.70;94.90;;;;;;5003896;28;20091;-79
2021/01/02 08:46:13;;;;;;;36.70;18.80;;;2.70;95.00;;;;;;5007844;28;20549;-79
2021/01/02 08:48:45;;;;;;;37.25;14.77;;;2.80;94.90;;;;;;5004353;28;20385;-80
2021/01/02 08:51:24;;;;;;;34.08;15.15;;;2.80;94.80;;;;;;5006725;28;20100;-79
2021/01/02 08:53:49;;;;;;;40.38;18.52;;;2.80;94.90;;;;;;5004761;28;20045;-78
2021/01/02 08:56:27;;;;;;;39.15;16.45;;;2.80;95.00;;;;;;5006710;28;20481;-79
2021/01/02 08:58:53;;;;;;;44.60;16.13;;;2.80;95.00;;;;;;5004429;28;20037;-78
2021/01/02 09:01:19;;;;;;;33.38;15.55;;;2.90;94.90;;;;;;5004349;28;20044;-78
2021/01/02 09:03:44;;;;;;;37.55;18.85;;;2.80;94.90;;;;;;4987275;28;20026;-78
2021/01/02 09:06:20;;;;;;;26.77;11.73;;;2.90;94.80;;;;;;5004676;28;20033;-78
2021/01/02 09:08:57;;;;;;;43.85;19.15;;;2.90;94.80;;;;;;5021640;28;20037;-78
2021/01/02 09:11:23;;;;;;;27.38;13.82;;;2.90;95.00;;;;;;5031162;28;20456;-77
2021/01/02 09:13:48;;;;;;;27.98;12.95;;;3.00;95.20;;;;;;5020332;28;20067;-78
2021/01/02 09:16:14;;;;;;;37.90;17.40;;;3.00;94.90;;;;;;5003800;28;20045;-78
2021/01/02 09:18:41;;;;;;;35.88;16.42;;;3.00;94.90;;;;;;5017433;28;20413;-79
2021/01/02 09:21:09;;;;;;;37.53;19.55;;;3.00;94.80;;;;;;5004198;28;20034;-79
2021/01/02 09:23:35;;;;;;;44.92;22.17;;;3.10;95.00;;;;;;5045134;28;20034;-79
2021/01/02 09:26:01;;;;;;;33.42;16.42;;;3.10;95.00;;;;;;4999316;28;20037;-77
2021/01/02 09:28:27;;;;;;;33.33;16.40;;;3.10;94.80;;;;;;5031030;28;20038;-79
2021/01/02 09:30:52;;;;;;;33.05;16.75;;;3.20;94.90;;;;;;4985480;28;20103;-79
2021/01/02 09:33:18;;;;;;;36.47;16.10;;;3.20;94.80;;;;;;5019455;28;20033;-79
2021/01/02 09:35:45;;;;;;;32.67;14.95;;;3.20;94.80;;;;;;5019027;28;20030;-79
2021/01/02 09:38:10;;;;;;;32.28;15.00;;;3.20;94.80;;;;;;5001773;28;20060;-79
2021/01/02 09:40:40;;;;;;;31.98;14.70;;;3.20;94.60;;;;;;5005643;28;20061;-79
2021/01/02 09:43:08;;;;;;;36.72;16.50;;;3.30;94.80;;;;;;4989884;28;20041;-79
2021/01/02 09:45:34;;;;;;;31.55;14.88;;;3.40;94.70;;;;;;4988527;28;20067;-79
2021/01/02 09:47:59;;;;;;;48.05;23.08;;;3.30;94.90;;;;;;5019427;28;20042;-79
2021/01/02 09:50:25;;;;;;;46.63;20.70;;;3.40;95.30;;;;;;4987494;28;20029;-79
2021/01/02 09:52:51;;;;;;;31.73;15.43;;;3.50;94.90;;;;;;5005274;28;20549;-79
2021/01/02 09:55:16;;;;;;;40.28;18.50;;;3.50;94.80;;;;;;4988536;28;20030;-79
2021/01/02 09:57:44;;;;;;;30.02;16.10;;;3.50;95.00;;;;;;5002233;28;20084;-79
2021/01/02 10:00:11;;;;;;;33.23;14.10;;;3.60;94.80;;;;;;4308587;28;10021683;-78
2021/01/02 10:02:36;;;;;;;42.60;19.13;;;3.60;94.60;;;;;;5001439;28;20362;-79
2021/01/02 10:05:02;;;;;;;32.67;13.20;;;3.60;94.80;;;;;;5001670;28;20036;-79
2021/01/02 10:07:27;;;;;;;35.65;15.05;;;3.70;95.20;;;;;;5000716;28;20516;-78
2021/01/02 10:09:53;;;;;;;35.47;16.17;;;3.70;94.70;;;;;;5000321;28;20602;-79
2021/01/02 10:12:19;;;;;;;27.08;14.63;;;3.70;94.90;;;;;;5031708;28;20621;-78
2021/01/02 10:14:44;;;;;;;36.75;17.45;;;3.80;94.90;;;;;;5016636;28;20065;-79
2021/01/02 10:17:10;;;;;;;26.00;12.73;;;3.90;94.90;;;;;;5000174;28;20042;-79
2021/01/02 10:19:39;;;;;;;22.70;10.93;;;3.80;94.30;;;;;;4997015;28;20371;-78
2021/01/02 10:22:05;;;;;;;32.95;15.20;;;3.70;94.50;;;;;;4999575;28;20057;-78
2021/01/02 10:24:30;;;;;;;26.42;13.52;;;3.70;94.30;;;;;;5016299;28;20121;-78
2021/01/02 10:26:56;;;;;;;34.47;15.23;;;3.80;94.70;;;;;;5034975;28;20079;-78
2021/01/02 10:29:22;;;;;;;35.35;16.25;;;3.90;94.50;;;;;;4989284;28;20048;-78
2021/01/02 10:31:48;;;;;;;33.78;17.45;;;3.90;94.60;;;;;;5017253;28;20041;-78
2021/01/02 10:34:14;;;;;;;31.70;15.15;;;4.00;95.20;;;;;;5004868;28;20679;-78
2021/01/02 10:36:39;;;;;;;33.67;14.82;;;4.00;94.30;;;;;;5020154;28;20123;-78
2021/01/02 10:39:05;;;;;;;35.05;15.55;;;4.00;94.90;;;;;;5023779;28;20085;-78
2021/01/02 10:41:31;;;;;;;34.40;14.98;;;4.10;95.00;;;;;;4987196;28;20144;-78
2021/01/02 10:43:56;;;;;;;34.58;16.38;;;4.20;94.80;;;;;;5005871;28;20030;-78
2021/01/02 10:46:22;;;;;;;29.38;14.88;;;4.20;94.60;;;;;;4988534;28;20044;-78
2021/01/02 10:48:47;;;;;;;27.55;13.80;;;4.20;94.40;;;;;;4990929;28;20068;-78
2021/01/02 10:51:14;;;;;;;32.85;14.73;;;4.30;94.40;;;;;;5024754;28;20223;-78
2021/01/02 10:53:39;;;;;;;31.73;13.80;;;4.20;94.10;;;;;;5008701;28;20064;-78
2021/01/02 10:56:15;;;;;;;41.42;17.85;;;4.20;94.10;;;;;;5008906;28;20033;-78
2021/01/02 10:58:41;;;;;;;26.55;11.57;;;4.20;94.40;;;;;;5008136;28;20042;-78
2021/01/02 11:01:06;;;;;;;40.80;14.63;;;4.20;94.50;;;;;;5024765;28;20034;-78
2021/01/02 11:03:34;;;;;;;26.23;12.80;;;4.30;94.40;;;;;;4991580;28;20385;-78
2021/01/02 11:06:06;;;;;;;28.65;13.95;;;4.40;94.80;;;;;;5022362;28;20037;-78
2021/01/02 11:08:34;;;;;;;32.67;14.02;;;4.50;94.60;;;;;;5003409;28;20060;-77
2021/01/02 11:10:59;;;;;;;37.92;17.65;;;4.60;94.60;;;;;;5006458;28;20033;-77
2021/01/02 11:13:25;;;;;;;41.15;19.25;;;4.70;94.70;;;;;;5005637;28;20523;-77
2021/01/02 11:15:50;;;;;;;30.20;14.50;;;4.80;95.00;;;;;;5022976;28;20045;-78
2021/01/02 11:18:16;;;;;;;32.70;14.25;;;4.60;93.80;;;;;;5037688;28;20017;-77
2021/01/02 11:20:41;;;;;;;34.60;15.13;;;4.70;94.80;;;;;;5005510;28;20065;-78
2021/01/02 11:23:07;;;;;;;43.08;20.30;;;4.80;94.50;;;;;;5021140;28;20540;-77
2021/01/02 11:25:32;;;;;;;40.30;18.27;;;4.80;94.80;;;;;;5020246;28;20064;-77
2021/01/02 11:27:58;;;;;;;42.92;19.48;;;5.00;95.20;;;;;;4979195;28;21684;-77
2021/01/02 11:30:24;;;;;;;35.95;17.45;;;5.10;95.40;;;;;;5019572;28;20551;-78
2021/01/02 11:32:50;;;;;;;38.67;18.20;;;5.10;95.30;;;;;;5020060;28;20034;-77
2021/01/02 11:35:16;;;;;;;34.55;16.67;;;5.20;95.90;;;;;;5005703;28;20543;-78
2021/01/02 11:37:41;;;;;;;29.58;15.45;;;5.20;94.70;;;;;;5020746;28;20029;-78
2021/01/02 11:40:07;;;;;;;39.05;20.73;;;5.20;94.20;;;;;;5007245;28;20767;-78
2021/01/02 11:42:33;;;;;;;40.75;18.40;;;5.20;95.50;;;;;;5005919;28;20034;-78
2021/01/02 11:44:59;;;;;;;35.88;15.43;;;5.30;94.80;;;;;;4994590;28;20526;-77
2021/01/02 11:47:24;;;;;;;37.65;16.70;;;5.20;93.80;;;;;;5012668;28;20121;-78
2021/01/02 11:49:50;;;;;;;26.80;13.02;;;5.30;95.60;;;;;;5021500;28;20036;-78
2021/01/02 11:52:15;;;;;;;27.27;14.43;;;5.30;93.70;;;;;;5004952;28;20047;-79
2021/01/02 11:54:41;;;;;;;34.63;15.52;;;5.30;95.20;;;;;;5006505;28;20025;-80
2021/01/02 11:57:06;;;;;;;37.50;17.10;;;5.40;94.40;;;;;;4990724;28;20561;-79
2021/01/02 11:59:32;;;;;;;31.65;15.07;;;5.50;95.60;;;;;;5004807;28;20128;-79
2021/01/02 12:02:00;;;;;;;33.20;15.15;;;5.50;94.10;;;;;;5017081;28;20500;-78
2021/01/02 12:04:26;;;;;;;23.80;11.07;;;5.40;93.30;;;;;;4990207;28;20091;-78
2021/01/02 12:06:52;;;;;;;19.67;8.00;;;5.20;93.00;;;;;;5006183;28;20852;-78
2021/01/02 12:09:19;;;;;;;23.20;11.15;;;5.20;93.40;;;;;;5004267;28;20041;-78
2021/01/02 12:11:45;;;;;;;23.63;11.63;;;5.20;93.30;;;;;;5004108;28;20663;-78
2021/01/02 12:14:12;;;;;;;25.98;11.82;;;5.10;93.00;;;;;;5001170;28;20038;-78
2021/01/02 12:16:42;;;;;;;29.23;11.60;;;5.10;93.30;;;;;;5020816;28;20454;-78
2021/01/02 12:19:14;;;;;;;31.05;13.50;;;5.10;93.10;;;;;;5023261;28;20034;-79
2021/01/02 12:21:40;;;;;;;31.77;15.98;;;5.20;93.90;;;;;;4312775;28;9999971;-77
2021/01/02 12:24:06;;;;;;;31.77;15.00;;;5.50;94.40;;;;;;5003648;28;20045;-77
2021/01/02 12:26:32;;;;;;;24.00;13.10;;;5.60;94.90;;;;;;5016635;28;20881;-77
2021/01/02 12:28:57;;;;;;;30.20;13.05;;;5.60;93.40;;;;;;5012149;28;20144;-78
2021/01/02 12:31:24;;;;;;;35.33;15.00;;;5.60;93.90;;;;;;4986906;28;20037;-77
2021/01/02 12:33:50;;;;;;;26.60;14.18;;;5.60;93.50;;;;;;5017251;28;20392;-77
2021/01/02 12:36:17;;;;;;;30.88;16.83;;;5.80;95.00;;;;;;4995519;28;20029;-77
2021/01/02 12:38:43;;;;;;;30.60;14.23;;;6.00;95.80;;;;;;5021677;28;20404;-77
2021/01/02 12:41:16;;;;;;;29.02;14.70;;;6.10;94.60;;;;;;5008214;28;20041;-78
2021/01/02 12:43:42;;;;;;;33.63;15.18;;;6.00;94.00;;;;;;5025095;28;20053;-78
2021/01/02 12:46:08;;;;;;;28.05;14.70;;;5.90;93.40;;;;;;4987503;28;20033;-78
2021/01/02 12:48:33;;;;;;;27.17;14.77;;;5.90;93.10;;;;;;4985592;28;20037;-78
2021/01/02 12:50:59;;;;;;;28.90;14.55;;;5.90;94.80;;;;;;4988046;28;20033;-78